sensor_id;sensor_type;location;lat;lon;timestamp;P1;durP1;ratioP1;P2;durP2;ratioP2
48891;SDS011;50130;52.150;5.236;2022-09-24T00:00:06;50.4;;;43.7;;
48891;SDS011;50130;52.150;5.236;2022-09-24T00:03:20;51.2;;;42.2;;
48891;SDS011;50130;52.150;5.236;2022-09-24T00:04:58;51.0;;;42.5;;
48891;SDS011;50130;52.150;5.236;2022-09-24T00:06:34;43.2;;;38.5;;
48891;SDS011;50130;52.150;5.236;2022-09-24T00:08:13;57.0;;;46.4;;
48891;SDS011;50130;52.150;5.236;2022-09-24T00:11:28;53.4;;;44.2;;
48891;SDS011;50130;52.150;5.236;2022-09-24T00:13:06;47.9;;;40.1;;
48891;SDS011;50130;52.150;5.236;2022-09-24T00:14:44;51.7;;;42.8;;
48891;SDS011;50130;52.150;5.236;2022-09-24T00:18:00;49.1;;;40.6;;
48891;SDS011;50130;52.150;5.236;2022-09-24T00:19:37;54.5;;;42.9;;
48891;SDS011;50130;52.150;5.236;2022-09-24T00:21:13;50.6;;;39.4;;
48891;SDS011;50130;52.150;5.236;2022-09-24T00:22:53;46.7;;;38.81;;
48891;SDS011;50130;52.150;5.236;2022-09-24T00:27:21;54.0;;;42.8;;
48891;SDS011;50130;52.150;5.236;2022-09-24T00:28:57;51.8;;;41.3;;
48891;SDS011;50130;52.150;5.236;2022-09-24T00:32:12;53.1;;;39.4;;
48891;SDS011;50130;52.150;5.236;2022-09-24T00:33:51;41.0;;;35.9;;
48891;SDS011;50130;52.150;5.236;2022-09-24T00:35:30;47.8;;;38.21;;
48891;SDS011;50130;52.150;5.236;2022-09-24T00:38:46;49.1;;;39.21;;
48891;SDS011;50130;52.150;5.236;2022-09-24T00:40:26;45.4;;;37.21;;
48891;SDS011;50130;52.150;5.236;2022-09-24T00:42:03;52.3;;;40.31;;
48891;SDS011;50130;52.150;5.236;2022-09-24T00:43:40;55.4;;;40.31;;
48891;SDS011;50130;52.150;5.236;2022-09-24T00:46:53;44.9;;;36.0;;
48891;SDS011;50130;52.150;5.236;2022-09-24T00:48:31;50.5;;;39.31;;
48891;SDS011;50130;52.150;5.236;2022-09-24T00:50:13;32.6;;;28.8;;
48891;SDS011;50130;52.150;5.236;2022-09-24T00:53:32;35.0;;;30.6;;
48891;SDS011;50130;52.150;5.236;2022-09-24T00:55:10;45.6;;;37.0;;
48891;SDS011;50130;52.150;5.236;2022-09-24T00:56:48;40.31;;;34.1;;
48891;SDS011;50130;52.150;5.236;2022-09-24T00:58:26;42.2;;;34.9;;
48891;SDS011;50130;52.150;5.236;2022-09-24T01:01:45;48.3;;;38.1;;
48891;SDS011;50130;52.150;5.236;2022-09-24T01:03:23;49.0;;;37.4;;
48891;SDS011;50130;52.150;5.236;2022-09-24T01:05:03;43.4;;;35.0;;
48891;SDS011;50130;52.150;5.236;2022-09-24T01:06:39;45.6;;;35.81;;
48891;SDS011;50130;52.150;5.236;2022-09-24T01:09:54;41.8;;;33.6;;
48891;SDS011;50130;52.150;5.236;2022-09-24T01:11:35;40.9;;;33.21;;
48891;SDS011;50130;52.150;5.236;2022-09-24T01:13:27;42.3;;;34.0;;
48891;SDS011;50130;52.150;5.236;2022-09-24T01:15:18;44.3;;;35.5;;
48891;SDS011;50130;52.150;5.236;2022-09-24T01:18:50;47.8;;;37.0;;
48891;SDS011;50130;52.150;5.236;2022-09-24T01:23:32;46.1;;;35.9;;
48891;SDS011;50130;52.150;5.236;2022-09-24T01:26:32;43.7;;;35.4;;
48891;SDS011;50130;52.150;5.236;2022-09-24T01:28:30;37.31;;;30.4;;
48891;SDS011;50130;52.150;5.236;2022-09-24T01:30:15;38.5;;;32.8;;
48891;SDS011;50130;52.150;5.236;2022-09-24T01:31:52;37.9;;;32.21;;
48891;SDS011;50130;52.150;5.236;2022-09-24T01:35:14;39.9;;;32.6;;
48891;SDS011;50130;52.150;5.236;2022-09-24T01:36:56;38.5;;;31.1;;
48891;SDS011;50130;52.150;5.236;2022-09-24T01:38:38;41.2;;;31.7;;
48891;SDS011;50130;52.150;5.236;2022-09-24T01:40:17;41.2;;;32.8;;
48891;SDS011;50130;52.150;5.236;2022-09-24T01:43:34;42.6;;;34.0;;
48891;SDS011;50130;52.150;5.236;2022-09-24T01:45:11;42.8;;;34.31;;
48891;SDS011;50130;52.150;5.236;2022-09-24T01:46:50;47.7;;;36.1;;
48891;SDS011;50130;52.150;5.236;2022-09-24T01:48:29;36.1;;;31.1;;
48891;SDS011;50130;52.150;5.236;2022-09-24T01:51:45;43.0;;;34.6;;
48891;SDS011;50130;52.150;5.236;2022-09-24T01:53:26;35.21;;;29.8;;
48891;SDS011;50130;52.150;5.236;2022-09-24T01:55:06;47.6;;;36.71;;
48891;SDS011;50130;52.150;5.236;2022-09-24T01:58:28;46.1;;;38.0;;
48891;SDS011;50130;52.150;5.236;2022-09-24T02:00:10;45.2;;;36.31;;
48891;SDS011;50130;52.150;5.236;2022-09-24T02:01:49;48.5;;;37.1;;
48891;SDS011;50130;52.150;5.236;2022-09-24T02:03:43;50.7;;;38.9;;
48891;SDS011;50130;52.150;5.236;2022-09-24T02:05:31;51.1;;;39.5;;
48891;SDS011;50130;52.150;5.236;2022-09-24T02:07:22;45.0;;;37.1;;
48891;SDS011;50130;52.150;5.236;2022-09-24T02:11:05;57.7;;;41.5;;
48891;SDS011;50130;52.150;5.236;2022-09-24T02:12:47;54.3;;;40.4;;
48891;SDS011;50130;52.150;5.236;2022-09-24T02:14:29;56.2;;;42.7;;
48891;SDS011;50130;52.150;5.236;2022-09-24T02:16:14;55.4;;;41.8;;
48891;SDS011;50130;52.150;5.236;2022-09-24T02:17:56;48.8;;;38.31;;
48891;SDS011;50130;52.150;5.236;2022-09-24T02:21:17;61.0;;;44.5;;
48891;SDS011;50130;52.150;5.236;2022-09-24T02:22:56;67.8;;;45.6;;
48891;SDS011;50130;52.150;5.236;2022-09-24T02:24:35;67.5;;;46.1;;
48891;SDS011;50130;52.150;5.236;2022-09-24T02:26:20;58.0;;;42.5;;
48891;SDS011;50130;52.150;5.236;2022-09-24T02:29:32;63.0;;;44.0;;
48891;SDS011;50130;52.150;5.236;2022-09-24T02:31:10;66.7;;;46.1;;
48891;SDS011;50130;52.150;5.236;2022-09-24T02:32:48;62.5;;;43.7;;
48891;SDS011;50130;52.150;5.236;2022-09-24T02:36:10;51.8;;;39.6;;
48891;SDS011;50130;52.150;5.236;2022-09-24T02:37:47;64.8;;;44.5;;
48891;SDS011;50130;52.150;5.236;2022-09-24T02:39:23;66.1;;;45.1;;
48891;SDS011;50130;52.150;5.236;2022-09-24T02:41:00;51.0;;;40.6;;
48891;SDS011;50130;52.150;5.236;2022-09-24T02:44:13;60.4;;;43.1;;
48891;SDS011;50130;52.150;5.236;2022-09-24T02:45:50;63.8;;;45.1;;
48891;SDS011;50130;52.150;5.236;2022-09-24T02:47:27;62.4;;;44.8;;
48891;SDS011;50130;52.150;5.236;2022-09-24T02:50:40;41.6;;;34.81;;
48891;SDS011;50130;52.150;5.236;2022-09-24T02:52:17;61.6;;;44.0;;
48891;SDS011;50130;52.150;5.236;2022-09-24T02:53:53;55.1;;;41.5;;
48891;SDS011;50130;52.150;5.236;2022-09-24T02:55:29;60.5;;;43.2;;
48891;SDS011;50130;52.150;5.236;2022-09-24T02:58:43;56.1;;;43.3;;
48891;SDS011;50130;52.150;5.236;2022-09-24T03:00:20;53.9;;;41.1;;
48891;SDS011;50130;52.150;5.236;2022-09-24T03:01:56;59.4;;;43.3;;
48891;SDS011;50130;52.150;5.236;2022-09-24T03:05:10;57.1;;;42.1;;
48891;SDS011;50130;52.150;5.236;2022-09-24T03:06:46;57.3;;;42.9;;
48891;SDS011;50130;52.150;5.236;2022-09-24T03:08:23;58.8;;;43.5;;
48891;SDS011;50130;52.150;5.236;2022-09-24T03:11:35;57.3;;;43.1;;
48891;SDS011;50130;52.150;5.236;2022-09-24T03:13:12;66.2;;;45.9;;
48891;SDS011;50130;52.150;5.236;2022-09-24T03:14:48;62.9;;;45.2;;
48891;SDS011;50130;52.150;5.236;2022-09-24T03:16:24;55.8;;;41.6;;
48891;SDS011;50130;52.150;5.236;2022-09-24T03:19:38;64.6;;;44.7;;
48891;SDS011;50130;52.150;5.236;2022-09-24T03:21:15;54.0;;;42.4;;
48891;SDS011;50130;52.150;5.236;2022-09-24T03:22:54;72.3;;;49.5;;
48891;SDS011;50130;52.150;5.236;2022-09-24T03:26:06;70.0;;;49.6;;
48891;SDS011;50130;52.150;5.236;2022-09-24T03:27:43;55.2;;;42.8;;
48891;SDS011;50130;52.150;5.236;2022-09-24T03:30:58;56.3;;;43.8;;
48891;SDS011;50130;52.150;5.236;2022-09-24T03:32:35;71.61;;;49.3;;
48891;SDS011;50130;52.150;5.236;2022-09-24T03:34:11;77.91;;;53.5;;
48891;SDS011;50130;52.150;5.236;2022-09-24T03:35:48;69.8;;;50.2;;
48891;SDS011;50130;52.150;5.236;2022-09-24T03:37:24;65.3;;;47.4;;
48891;SDS011;50130;52.150;5.236;2022-09-24T03:40:36;65.91;;;48.0;;
48891;SDS011;50130;52.150;5.236;2022-09-24T03:42:12;62.0;;;46.2;;
48891;SDS011;50130;52.150;5.236;2022-09-24T03:43:48;72.7;;;50.1;;
48891;SDS011;50130;52.150;5.236;2022-09-24T03:47:01;78.41;;;53.4;;
48891;SDS011;50130;52.150;5.236;2022-09-24T03:48:37;77.11;;;51.1;;
48891;SDS011;50130;52.150;5.236;2022-09-24T03:50:16;78.7;;;52.4;;
48891;SDS011;50130;52.150;5.236;2022-09-24T03:51:52;82.1;;;54.3;;
48891;SDS011;50130;52.150;5.236;2022-09-24T03:55:05;66.41;;;48.0;;
48891;SDS011;50130;52.150;5.236;2022-09-24T03:56:42;76.0;;;53.4;;
48891;SDS011;50130;52.150;5.236;2022-09-24T03:58:18;73.41;;;51.5;;
48891;SDS011;50130;52.150;5.236;2022-09-24T04:01:32;65.7;;;48.2;;
48891;SDS011;50130;52.150;5.236;2022-09-24T04:03:08;68.8;;;50.0;;
48891;SDS011;50130;52.150;5.236;2022-09-24T04:04:45;68.91;;;49.4;;
48891;SDS011;50130;52.150;5.236;2022-09-24T04:07:58;75.2;;;52.9;;
48891;SDS011;50130;52.150;5.236;2022-09-24T04:09:36;80.91;;;55.8;;
48891;SDS011;50130;52.150;5.236;2022-09-24T04:11:12;71.3;;;50.5;;
48891;SDS011;50130;52.150;5.236;2022-09-24T04:12:49;72.91;;;52.3;;
48891;SDS011;50130;52.150;5.236;2022-09-24T04:16:02;72.3;;;51.8;;
48891;SDS011;50130;52.150;5.236;2022-09-24T04:17:38;78.41;;;54.0;;
48891;SDS011;50130;52.150;5.236;2022-09-24T04:19:15;77.5;;;54.4;;
48891;SDS011;50130;52.150;5.236;2022-09-24T04:22:33;82.8;;;54.6;;
48891;SDS011;50130;52.150;5.236;2022-09-24T04:24:09;78.0;;;54.7;;
48891;SDS011;50130;52.150;5.236;2022-09-24T04:25:47;79.7;;;54.8;;
48891;SDS011;50130;52.150;5.236;2022-09-24T04:28:59;78.0;;;54.3;;
48891;SDS011;50130;52.150;5.236;2022-09-24T04:30:35;62.0;;;48.5;;
48891;SDS011;50130;52.150;5.236;2022-09-24T04:32:13;74.3;;;52.0;;
48891;SDS011;50130;52.150;5.236;2022-09-24T04:33:50;74.41;;;52.4;;
48891;SDS011;50130;52.150;5.236;2022-09-24T04:37:04;77.0;;;53.5;;
48891;SDS011;50130;52.150;5.236;2022-09-24T04:38:41;71.61;;;52.1;;
48891;SDS011;50130;52.150;5.236;2022-09-24T04:40:17;86.6;;;56.0;;
48891;SDS011;50130;52.150;5.236;2022-09-24T04:43:31;88.0;;;57.0;;
48891;SDS011;50130;52.150;5.236;2022-09-24T04:45:08;75.8;;;52.3;;
48891;SDS011;50130;52.150;5.236;2022-09-24T04:46:45;85.4;;;55.9;;
48891;SDS011;50130;52.150;5.236;2022-09-24T04:48:23;88.1;;;58.1;;
48891;SDS011;50130;52.150;5.236;2022-09-24T04:51:39;84.4;;;56.2;;
48891;SDS011;50130;52.150;5.236;2022-09-24T04:53:15;88.0;;;56.6;;
48891;SDS011;50130;52.150;5.236;2022-09-24T04:54:51;78.8;;;54.0;;
48891;SDS011;50130;52.150;5.236;2022-09-24T04:58:03;79.61;;;54.8;;
48891;SDS011;50130;52.150;5.236;2022-09-24T04:59:39;85.4;;;55.6;;
48891;SDS011;50130;52.150;5.236;2022-09-24T05:01:15;92.5;;;59.8;;
48891;SDS011;50130;52.150;5.236;2022-09-24T05:04:32;83.6;;;57.0;;
48891;SDS011;50130;52.150;5.236;2022-09-24T05:06:10;79.41;;;52.0;;
48891;SDS011;50130;52.150;5.236;2022-09-24T05:07:46;84.9;;;55.8;;
48891;SDS011;50130;52.150;5.236;2022-09-24T05:09:22;94.6;;;58.9;;
48891;SDS011;50130;52.150;5.236;2022-09-24T05:12:38;91.1;;;57.0;;
48891;SDS011;50130;52.150;5.236;2022-09-24T05:14:16;95.7;;;58.8;;
48891;SDS011;50130;52.150;5.236;2022-09-24T05:15:52;83.6;;;54.9;;
48891;SDS011;50130;52.150;5.236;2022-09-24T05:19:04;78.8;;;53.7;;
48891;SDS011;50130;52.150;5.236;2022-09-24T05:20:41;90.9;;;56.9;;
48891;SDS011;50130;52.150;5.236;2022-09-24T05:22:16;76.11;;;52.6;;
48891;SDS011;50130;52.150;5.236;2022-09-24T05:23:53;100.5;;;59.9;;
48891;SDS011;50130;52.150;5.236;2022-09-24T05:27:09;82.3;;;54.6;;
48891;SDS011;50130;52.150;5.236;2022-09-24T05:28:45;94.1;;;57.7;;
48891;SDS011;50130;52.150;5.236;2022-09-24T05:30:22;88.6;;;55.7;;
48891;SDS011;50130;52.150;5.236;2022-09-24T05:33:41;99.0;;;59.2;;
48891;SDS011;50130;52.150;5.236;2022-09-24T05:35:17;83.3;;;53.4;;
48891;SDS011;50130;52.150;5.236;2022-09-24T05:36:54;101.0;;;58.6;;
48891;SDS011;50130;52.150;5.236;2022-09-24T05:41:13;96.4;;;58.0;;
48891;SDS011;50130;52.150;5.236;2022-09-24T05:42:49;100.7;;;57.8;;
48891;SDS011;50130;52.150;5.236;2022-09-24T05:46:03;110.3;;;59.6;;
48891;SDS011;50130;52.150;5.236;2022-09-24T05:47:39;96.6;;;55.6;;
48891;SDS011;50130;52.150;5.236;2022-09-24T05:49:15;85.2;;;53.9;;
48891;SDS011;50130;52.150;5.236;2022-09-24T05:52:30;84.6;;;53.7;;
48891;SDS011;50130;52.150;5.236;2022-09-24T05:54:06;68.3;;;47.7;;
48891;SDS011;50130;52.150;5.236;2022-09-24T05:55:44;89.7;;;54.6;;
48891;SDS011;50130;52.150;5.236;2022-09-24T05:58:56;95.1;;;55.8;;
48891;SDS011;50130;52.150;5.236;2022-09-24T06:00:32;89.5;;;53.7;;
48891;SDS011;50130;52.150;5.236;2022-09-24T06:02:09;87.5;;;53.4;;
48891;SDS011;50130;52.150;5.236;2022-09-24T06:03:48;76.91;;;51.3;;
48891;SDS011;50130;52.150;5.236;2022-09-24T06:07:02;94.1;;;53.3;;
48891;SDS011;50130;52.150;5.236;2022-09-24T06:08:38;112.1;;;58.4;;
48891;SDS011;50130;52.150;5.236;2022-09-24T06:10:15;91.1;;;54.6;;
48891;SDS011;50130;52.150;5.236;2022-09-24T06:13:30;105.0;;;57.0;;
48891;SDS011;50130;52.150;5.236;2022-09-24T06:15:07;88.6;;;52.3;;
48891;SDS011;50130;52.150;5.236;2022-09-24T06:16:44;103.7;;;55.3;;
48891;SDS011;50130;52.150;5.236;2022-09-24T06:18:21;103.7;;;55.3;;
48891;SDS011;50130;52.150;5.236;2022-09-24T06:21:33;80.8;;;52.5;;
48891;SDS011;50130;52.150;5.236;2022-09-24T06:23:09;78.7;;;50.6;;
48891;SDS011;50130;52.150;5.236;2022-09-24T06:24:45;75.7;;;51.6;;
48891;SDS011;50130;52.150;5.236;2022-09-24T06:28:00;88.2;;;52.9;;
48891;SDS011;50130;52.150;5.236;2022-09-24T06:29:38;95.0;;;53.4;;
48891;SDS011;50130;52.150;5.236;2022-09-24T06:31:15;89.4;;;51.7;;
48891;SDS011;50130;52.150;5.236;2022-09-24T06:34:28;87.2;;;51.0;;
48891;SDS011;50130;52.150;5.236;2022-09-24T06:36:04;96.1;;;53.9;;
48891;SDS011;50130;52.150;5.236;2022-09-24T06:37:41;99.3;;;56.2;;
48891;SDS011;50130;52.150;5.236;2022-09-24T06:39:17;85.9;;;51.9;;
48891;SDS011;50130;52.150;5.236;2022-09-24T06:42:35;74.5;;;48.2;;
48891;SDS011;50130;52.150;5.236;2022-09-24T06:44:11;92.3;;;52.9;;
48891;SDS011;50130;52.150;5.236;2022-09-24T06:45:47;101.6;;;56.2;;
48891;SDS011;50130;52.150;5.236;2022-09-24T06:48:59;93.2;;;53.2;;
48891;SDS011;50130;52.150;5.236;2022-09-24T06:50:37;81.5;;;51.5;;
48891;SDS011;50130;52.150;5.236;2022-09-24T06:52:15;81.41;;;49.5;;
48891;SDS011;50130;52.150;5.236;2022-09-24T06:53:52;94.6;;;53.2;;
48891;SDS011;50130;52.150;5.236;2022-09-24T06:57:05;104.2;;;54.4;;
48891;SDS011;50130;52.150;5.236;2022-09-24T06:58:42;107.0;;;56.5;;
48891;SDS011;50130;52.150;5.236;2022-09-24T07:00:18;104.3;;;56.3;;
48891;SDS011;50130;52.150;5.236;2022-09-24T07:03:31;79.11;;;49.7;;
48891;SDS011;50130;52.150;5.236;2022-09-24T07:05:09;89.3;;;53.0;;
48891;SDS011;50130;52.150;5.236;2022-09-24T07:07:49;96.4;;;52.3;;
48891;SDS011;50130;52.150;5.236;2022-09-24T07:09:26;96.4;;;53.6;;
48891;SDS011;50130;52.150;5.236;2022-09-24T07:11:03;94.5;;;52.4;;
48891;SDS011;50130;52.150;5.236;2022-09-24T07:14:17;96.3;;;52.9;;
48891;SDS011;50130;52.150;5.236;2022-09-24T07:15:53;94.2;;;51.6;;
48891;SDS011;50130;52.150;5.236;2022-09-24T07:17:29;98.4;;;54.9;;
48891;SDS011;50130;52.150;5.236;2022-09-24T07:19:05;99.1;;;53.2;;
48891;SDS011;50130;52.150;5.236;2022-09-24T07:22:20;91.3;;;52.2;;
48891;SDS011;50130;52.150;5.236;2022-09-24T07:23:57;97.9;;;52.6;;
48891;SDS011;50130;52.150;5.236;2022-09-24T07:25:33;90.6;;;52.4;;
48891;SDS011;50130;52.150;5.236;2022-09-24T07:28:48;95.6;;;53.6;;
48891;SDS011;50130;52.150;5.236;2022-09-24T07:30:24;99.0;;;53.9;;
48891;SDS011;50130;52.150;5.236;2022-09-24T07:32:01;99.1;;;52.8;;
48891;SDS011;50130;52.150;5.236;2022-09-24T07:33:39;98.5;;;53.5;;
48891;SDS011;50130;52.150;5.236;2022-09-24T07:36:51;105.4;;;55.7;;
48891;SDS011;50130;52.150;5.236;2022-09-24T07:38:29;88.3;;;48.9;;
48891;SDS011;50130;52.150;5.236;2022-09-24T07:40:06;92.6;;;51.3;;
48891;SDS011;50130;52.150;5.236;2022-09-24T07:43:19;85.8;;;50.9;;
48891;SDS011;50130;52.150;5.236;2022-09-24T07:44:56;112.2;;;55.6;;
48891;SDS011;50130;52.150;5.236;2022-09-24T07:46:32;93.8;;;50.6;;
48891;SDS011;50130;52.150;5.236;2022-09-24T07:49:46;99.6;;;52.6;;
48891;SDS011;50130;52.150;5.236;2022-09-24T07:51:22;98.2;;;52.4;;
48891;SDS011;50130;52.150;5.236;2022-09-24T07:52:59;76.11;;;46.0;;
48891;SDS011;50130;52.150;5.236;2022-09-24T07:54:36;78.0;;;45.8;;
48891;SDS011;50130;52.150;5.236;2022-09-24T07:57:50;98.8;;;50.3;;
48891;SDS011;50130;52.150;5.236;2022-09-24T07:59:29;68.7;;;42.0;;
48891;SDS011;50130;52.150;5.236;2022-09-24T08:01:05;75.5;;;42.4;;
48891;SDS011;50130;52.150;5.236;2022-09-24T08:04:17;67.7;;;40.31;;
48891;SDS011;50130;52.150;5.236;2022-09-24T08:05:57;78.5;;;41.9;;
48891;SDS011;50130;52.150;5.236;2022-09-24T08:07:34;74.11;;;42.0;;
48891;SDS011;50130;52.150;5.236;2022-09-24T08:09:10;65.41;;;39.5;;
48891;SDS011;50130;52.150;5.236;2022-09-24T08:12:23;70.41;;;38.9;;
48891;SDS011;50130;52.150;5.236;2022-09-24T08:14:00;54.7;;;35.21;;
48891;SDS011;50130;52.150;5.236;2022-09-24T08:15:38;55.4;;;35.1;;
48891;SDS011;50130;52.150;5.236;2022-09-24T08:18:52;58.9;;;37.31;;
48891;SDS011;50130;52.150;5.236;2022-09-24T08:20:29;58.2;;;36.1;;
48891;SDS011;50130;52.150;5.236;2022-09-24T08:22:07;50.2;;;32.4;;
48891;SDS011;50130;52.150;5.236;2022-09-24T08:25:20;44.6;;;29.4;;
48891;SDS011;50130;52.150;5.236;2022-09-24T08:26:57;47.4;;;31.8;;
48891;SDS011;50130;52.150;5.236;2022-09-24T08:28:33;44.4;;;29.9;;
48891;SDS011;50130;52.150;5.236;2022-09-24T08:30:10;48.8;;;30.2;;
48891;SDS011;50130;52.150;5.236;2022-09-24T08:35:01;40.21;;;27.3;;
48891;SDS011;50130;52.150;5.236;2022-09-24T08:36:38;41.3;;;28.1;;
48891;SDS011;50130;52.150;5.236;2022-09-24T08:39:51;46.3;;;30.0;;
48891;SDS011;50130;52.150;5.236;2022-09-24T08:41:33;41.5;;;28.2;;
48891;SDS011;50130;52.150;5.236;2022-09-24T08:43:35;43.3;;;27.7;;
48891;SDS011;50130;52.150;5.236;2022-09-24T08:48:13;43.2;;;27.7;;
48891;SDS011;50130;52.150;5.236;2022-09-24T08:49:59;40.31;;;27.5;;
48891;SDS011;50130;52.150;5.236;2022-09-24T08:51:45;35.4;;;24.7;;
48891;SDS011;50130;52.150;5.236;2022-09-24T08:53:41;35.9;;;25.0;;
48891;SDS011;50130;52.150;5.236;2022-09-24T08:55:24;36.9;;;24.4;;
48891;SDS011;50130;52.150;5.236;2022-09-24T08:58:51;32.8;;;22.6;;
48891;SDS011;50130;52.150;5.236;2022-09-24T09:00:35;26.7;;;20.3;;
48891;SDS011;50130;52.150;5.236;2022-09-24T09:02:31;33.9;;;22.9;;
48891;SDS011;50130;52.150;5.236;2022-09-24T09:04:20;34.4;;;23.4;;
48891;SDS011;50130;52.150;5.236;2022-09-24T09:06:08;38.6;;;23.7;;
48891;SDS011;50130;52.150;5.236;2022-09-24T09:07:52;33.0;;;23.4;;
48891;SDS011;50130;52.150;5.236;2022-09-24T09:11:22;37.71;;;24.3;;
48891;SDS011;50130;52.150;5.236;2022-09-24T09:13:04;38.4;;;24.3;;
48891;SDS011;50130;52.150;5.236;2022-09-24T09:14:53;37.71;;;24.3;;
48891;SDS011;50130;52.150;5.236;2022-09-24T09:18:22;30.4;;;20.5;;
48891;SDS011;50130;52.150;5.236;2022-09-24T09:21:51;21.8;;;16.9;;
48891;SDS011;50130;52.150;5.236;2022-09-24T09:25:18;36.5;;;21.5;;
48891;SDS011;50130;52.150;5.236;2022-09-24T09:26:58;28.7;;;18.8;;
48891;SDS011;50130;52.150;5.236;2022-09-24T09:30:12;26.5;;;19.0;;
48891;SDS011;50130;52.150;5.236;2022-09-24T09:32:07;30.8;;;19.61;;
48891;SDS011;50130;52.150;5.236;2022-09-24T09:34:28;25.6;;;16.3;;
48891;SDS011;50130;52.150;5.236;2022-09-24T09:36:20;23.7;;;17.2;;
48891;SDS011;50130;52.150;5.236;2022-09-24T09:38:11;20.6;;;14.8;;
48891;SDS011;50130;52.150;5.236;2022-09-24T09:40:01;16.9;;;13.1;;
48891;SDS011;50130;52.150;5.236;2022-09-24T09:41:54;14.3;;;11.4;;
48891;SDS011;50130;52.150;5.236;2022-09-24T09:43:37;15.6;;;10.7;;
48891;SDS011;50130;52.150;5.236;2022-09-24T09:47:08;10.1;;;8.0;;
48891;SDS011;50130;52.150;5.236;2022-09-24T09:48:55;17.91;;;12.0;;
48891;SDS011;50130;52.150;5.236;2022-09-24T09:50:38;16.61;;;10.4;;
48891;SDS011;50130;52.150;5.236;2022-09-24T09:52:20;16.5;;;10.1;;
48891;SDS011;50130;52.150;5.236;2022-09-24T09:54:01;15.8;;;10.21;;
48891;SDS011;50130;52.150;5.236;2022-09-24T09:57:17;14.3;;;9.31;;
48891;SDS011;50130;52.150;5.236;2022-09-24T09:59:01;11.1;;;8.5;;
48891;SDS011;50130;52.150;5.236;2022-09-24T10:00:41;15.4;;;9.9;;
48891;SDS011;50130;52.150;5.236;2022-09-24T10:02:21;15.0;;;9.1;;
48891;SDS011;50130;52.150;5.236;2022-09-24T10:05:42;15.9;;;10.1;;
48891;SDS011;50130;52.150;5.236;2022-09-24T10:07:30;15.7;;;10.6;;
48891;SDS011;50130;52.150;5.236;2022-09-24T10:09:18;13.4;;;9.5;;
48891;SDS011;50130;52.150;5.236;2022-09-24T10:10:55;13.7;;;9.1;;
48891;SDS011;50130;52.150;5.236;2022-09-24T10:14:10;11.1;;;7.7;;
48891;SDS011;50130;52.150;5.236;2022-09-24T10:15:51;15.1;;;9.71;;
48891;SDS011;50130;52.150;5.236;2022-09-24T10:17:31;11.3;;;7.6;;
48891;SDS011;50130;52.150;5.236;2022-09-24T10:19:13;9.1;;;6.8;;
48891;SDS011;50130;52.150;5.236;2022-09-24T10:22:32;9.21;;;6.0;;
48891;SDS011;50130;52.150;5.236;2022-09-24T10:24:13;13.7;;;8.0;;
48891;SDS011;50130;52.150;5.236;2022-09-24T10:25:54;9.1;;;7.4;;
48891;SDS011;50130;52.150;5.236;2022-09-24T10:27:35;7.1;;;5.9;;
48891;SDS011;50130;52.150;5.236;2022-09-24T10:32:05;7.3;;;6.5;;
48891;SDS011;50130;52.150;5.236;2022-09-24T10:33:51;13.7;;;8.71;;
48891;SDS011;50130;52.150;5.236;2022-09-24T10:37:14;10.8;;;7.8;;
48891;SDS011;50130;52.150;5.236;2022-09-24T10:39:00;12.7;;;9.0;;
48891;SDS011;50130;52.150;5.236;2022-09-24T10:40:39;14.4;;;9.4;;
48891;SDS011;50130;52.150;5.236;2022-09-24T10:42:21;15.0;;;9.81;;
48891;SDS011;50130;52.150;5.236;2022-09-24T10:44:03;16.2;;;9.71;;
48891;SDS011;50130;52.150;5.236;2022-09-24T10:47:44;14.0;;;9.81;;
48891;SDS011;50130;52.150;5.236;2022-09-24T10:49:34;15.4;;;9.81;;
48891;SDS011;50130;52.150;5.236;2022-09-24T10:51:26;13.4;;;9.81;;
48891;SDS011;50130;52.150;5.236;2022-09-24T10:53:13;17.11;;;12.1;;
48891;SDS011;50130;52.150;5.236;2022-09-24T10:55:05;14.6;;;10.8;;
48891;SDS011;50130;52.150;5.236;2022-09-24T10:56:54;17.7;;;11.7;;
48891;SDS011;50130;52.150;5.236;2022-09-24T11:00:37;17.7;;;11.7;;
48891;SDS011;50130;52.150;5.236;2022-09-24T11:02:20;20.0;;;12.9;;
48891;SDS011;50130;52.150;5.236;2022-09-24T11:05:09;17.2;;;12.4;;
48891;SDS011;50130;52.150;5.236;2022-09-24T11:08:59;19.0;;;11.8;;
48891;SDS011;50130;52.150;5.236;2022-09-24T11:10:53;22.7;;;14.3;;
48891;SDS011;50130;52.150;5.236;2022-09-24T11:12:45;25.9;;;13.8;;
48891;SDS011;50130;52.150;5.236;2022-09-24T11:14:40;16.61;;;10.7;;
48891;SDS011;50130;52.150;5.236;2022-09-24T11:16:49;18.11;;;11.3;;
48891;SDS011;50130;52.150;5.236;2022-09-24T11:18:49;17.41;;;10.6;;
48891;SDS011;50130;52.150;5.236;2022-09-24T11:20:33;20.9;;;11.7;;
48891;SDS011;50130;52.150;5.236;2022-09-24T11:22:12;19.61;;;11.0;;
48891;SDS011;50130;52.150;5.236;2022-09-24T11:23:55;17.11;;;9.81;;
48891;SDS011;50130;52.150;5.236;2022-09-24T11:25:49;19.41;;;10.7;;
48891;SDS011;50130;52.150;5.236;2022-09-24T11:29:45;20.9;;;11.0;;
48891;SDS011;50130;52.150;5.236;2022-09-24T11:31:46;17.91;;;10.5;;
48891;SDS011;50130;52.150;5.236;2022-09-24T11:33:40;19.0;;;10.21;;
48891;SDS011;50130;52.150;5.236;2022-09-24T11:35:44;18.2;;;9.81;;
48891;SDS011;50130;52.150;5.236;2022-09-24T11:37:40;15.8;;;8.31;;
48891;SDS011;50130;52.150;5.236;2022-09-24T11:39:33;15.8;;;9.0;;
48891;SDS011;50130;52.150;5.236;2022-09-24T11:41:28;18.8;;;9.1;;
48891;SDS011;50130;52.150;5.236;2022-09-24T11:43:18;19.5;;;10.4;;
48891;SDS011;50130;52.150;5.236;2022-09-24T11:45:27;17.91;;;9.6;;
48891;SDS011;50130;52.150;5.236;2022-09-24T11:47:23;17.8;;;9.0;;
48891;SDS011;50130;52.150;5.236;2022-09-24T11:49:15;19.2;;;9.81;;
48891;SDS011;50130;52.150;5.236;2022-09-24T11:51:15;14.6;;;7.2;;
48891;SDS011;50130;52.150;5.236;2022-09-24T11:53:02;23.3;;;10.3;;
48891;SDS011;50130;52.150;5.236;2022-09-24T11:56:32;20.6;;;12.5;;
48891;SDS011;50130;52.150;5.236;2022-09-24T11:58:16;22.3;;;11.5;;
48891;SDS011;50130;52.150;5.236;2022-09-24T11:59:59;20.11;;;11.3;;
48891;SDS011;50130;52.150;5.236;2022-09-24T12:01:40;16.7;;;7.1;;
48891;SDS011;50130;52.150;5.236;2022-09-24T12:05:13;17.0;;;5.6;;
48891;SDS011;50130;52.150;5.236;2022-09-24T12:07:05;18.2;;;6.9;;
48891;SDS011;50130;52.150;5.236;2022-09-24T12:08:47;14.4;;;5.4;;
48891;SDS011;50130;52.150;5.236;2022-09-24T12:10:32;13.8;;;6.2;;
48891;SDS011;50130;52.150;5.236;2022-09-24T12:12:15;16.7;;;5.11;;
48891;SDS011;50130;52.150;5.236;2022-09-24T12:13:58;16.11;;;5.11;;
48891;SDS011;50130;52.150;5.236;2022-09-24T12:17:25;16.3;;;4.61;;
48891;SDS011;50130;52.150;5.236;2022-09-24T12:19:08;13.0;;;4.7;;
48891;SDS011;50130;52.150;5.236;2022-09-24T12:20:52;14.8;;;5.4;;
48891;SDS011;50130;52.150;5.236;2022-09-24T12:22:34;12.6;;;4.91;;
48891;SDS011;50130;52.150;5.236;2022-09-24T12:26:01;16.4;;;4.8;;
48891;SDS011;50130;52.150;5.236;2022-09-24T12:27:39;14.7;;;4.7;;
48891;SDS011;50130;52.150;5.236;2022-09-24T12:33:00;14.8;;;4.41;;
48891;SDS011;50130;52.150;5.236;2022-09-24T12:36:33;11.8;;;4.5;;
48891;SDS011;50130;52.150;5.236;2022-09-24T12:38:22;15.0;;;3.9;;
48891;SDS011;50130;52.150;5.236;2022-09-24T12:40:08;8.9;;;3.3;;
48891;SDS011;50130;52.150;5.236;2022-09-24T12:42:05;15.1;;;4.41;;
48891;SDS011;50130;52.150;5.236;2022-09-24T12:43:46;16.3;;;4.5;;
48891;SDS011;50130;52.150;5.236;2022-09-24T12:45:27;17.0;;;4.61;;
48891;SDS011;50130;52.150;5.236;2022-09-24T12:48:54;13.1;;;4.3;;
48891;SDS011;50130;52.150;5.236;2022-09-24T12:50:31;12.5;;;3.6;;
48891;SDS011;50130;52.150;5.236;2022-09-24T12:52:15;13.7;;;4.1;;
48891;SDS011;50130;52.150;5.236;2022-09-24T12:53:54;12.8;;;3.2;;
48891;SDS011;50130;52.150;5.236;2022-09-24T12:57:12;16.61;;;3.2;;
48891;SDS011;50130;52.150;5.236;2022-09-24T12:58:52;12.7;;;3.2;;